Time;durP1;ratioP1;P1;durP2;ratioP2;P2;SDS_P1;SDS_P2;PMS_P1;PMS_P2;Temp;Humidity;BMP_temperature;BMP_pressure;BME280_temperature;BME280_humidity;BME280_pressure;Samples;Min_cycle;Max_cycle;Signal;HPM_P1;HPM_P2
2023/04/22 00:01:05;;;;;;;5.45;3.28;;;;;;;;;;5016111;28;20030;-78
2023/04/22 00:03:32;;;;;;;5.53;3.35;;;;;;;;;;5015975;28;20030;-78
2023/04/22 00:05:58;;;;;;;5.28;2.92;;;;;;;;;;5016463;28;20045;-78
2023/04/22 00:08:24;;;;;;;4.32;2.90;;;;;;;;;;5003442;28;20026;-78
2023/04/22 00:10:50;;;;;;;3.58;3.03;;;;;;;;;;5012523;28;20075;-78
2023/04/22 00:13:16;;;;;;;4.72;2.95;;;;;;;;;;5016191;28;20022;-78
2023/04/22 00:15:42;;;;;;;4.90;3.45;;;;;;;;;;5016335;28;20393;-78
2023/04/22 00:18:12;;;;;;;4.28;3.35;;;;;;;;;;5014816;28;20018;-78
2023/04/22 00:20:39;;;;;;;5.93;3.42;;;;;;;;;;5032486;28;20080;-78
2023/04/22 00:23:05;;;;;;;4.85;3.35;;;;;;;;;;5036068;28;20026;-78
2023/04/22 00:25:31;;;;;;;4.70;3.25;;;;;;;;;;5018264;28;20514;-78
2023/04/22 00:27:57;;;;;;;4.43;3.15;;;;;;;;;;5017781;28;20052;-78
2023/04/22 00:30:22;;;;;;;4.88;3.63;;;;;;;;;;5035604;28;20080;-78
2023/04/22 00:32:48;;;;;;;4.95;3.42;;;;;;;;;;5022637;28;20026;-78
2023/04/22 00:35:14;;;;;;;6.25;4.22;;;;;;;;;;5016190;28;20025;-78
2023/04/22 00:37:47;;;;;;;6.75;4.38;;;;;;;;;;4998242;28;20044;-78
2023/04/22 00:40:13;;;;;;;5.22;4.00;;;;;;;;;;5015980;28;20105;-78
2023/04/22 00:42:39;;;;;;;5.28;3.88;;;;;;;;;;5015870;28;20060;-78
2023/04/22 00:45:09;;;;;;;9.13;5.25;;;;;;;;;;5015573;28;20026;-78
2023/04/22 00:47:35;;;;;;;7.88;5.40;;;;;;;;;;5016024;28;20030;-79
2023/04/22 00:50:02;;;;;;;8.82;6.07;;;;;;;;;;5031486;28;20108;-78
2023/04/22 00:52:28;;;;;;;7.63;5.38;;;;;;;;;;5035470;28;20097;-79
2023/04/22 00:54:54;;;;;;;10.68;6.32;;;;;;;;;;5035412;28;20098;-78
2023/04/22 00:57:20;;;;;;;9.52;6.43;;;;;;;;;;5035674;28;20109;-78
2023/04/22 00:59:46;;;;;;;9.02;6.10;;;;;;;;;;5035261;28;20033;-78
2023/04/22 01:02:12;;;;;;;8.82;6.00;;;;;;;;;;5017430;28;20116;-79
2023/04/22 01:04:38;;;;;;;8.05;6.00;;;;;;;;;;5035375;28;20673;-78
2023/04/22 01:07:05;;;;;;;9.25;5.78;;;;;;;;;;5035306;28;20435;-78
2023/04/22 01:09:31;;;;;;;9.95;5.82;;;;;;;;;;5035610;28;20029;-79
2023/04/22 01:11:57;;;;;;;7.10;5.43;;;;;;;;;;5035273;28;20056;-78
2023/04/22 01:14:23;;;;;;;8.02;5.32;;;;;;;;;;5034704;28;20467;-78
2023/04/22 01:16:52;;;;;;;7.15;5.72;;;;;;;;;;5030054;28;20030;-78
2023/04/22 01:19:18;;;;;;;6.90;5.50;;;;;;;;;;5013658;28;20049;-78
2023/04/22 01:21:45;;;;;;;7.70;5.25;;;;;;;;;;5014948;28;20072;-78
2023/04/22 01:24:11;;;;;;;9.07;5.78;;;;;;;;;;5015212;28;20083;-78
2023/04/22 01:26:37;;;;;;;8.63;6.03;;;;;;;;;;5014576;28;20403;-78
2023/04/22 01:29:04;;;;;;;9.02;6.47;;;;;;;;;;5027817;28;20029;-78
2023/04/22 01:31:30;;;;;;;9.82;6.28;;;;;;;;;;5034292;28;20032;-78
2023/04/22 01:33:57;;;;;;;8.73;6.60;;;;;;;;;;5034081;28;20379;-78
2023/04/22 01:36:23;;;;;;;9.85;6.32;;;;;;;;;;5033933;28;20025;-78
2023/04/22 01:38:49;;;;;;;10.38;7.00;;;;;;;;;;5034094;28;20045;-78
2023/04/22 01:41:15;;;;;;;9.63;6.95;;;;;;;;;;5024640;28;20080;-78
2023/04/22 01:43:41;;;;;;;12.82;7.95;;;;;;;;;;5002771;28;20469;-78
2023/04/22 01:46:08;;;;;;;9.15;6.70;;;;;;;;;;5034038;28;20017;-78
2023/04/22 01:48:35;;;;;;;10.45;7.22;;;;;;;;;;5034056;28;20018;-78
2023/04/22 01:51:01;;;;;;;10.82;7.85;;;;;;;;;;5028262;28;20018;-78
2023/04/22 01:53:27;;;;;;;9.65;6.90;;;;;;;;;;5033952;28;20097;-78
2023/04/22 01:55:53;;;;;;;9.60;6.65;;;;;;;;;;5031689;28;20064;-78
2023/04/22 01:58:19;;;;;;;9.68;6.45;;;;;;;;;;5014032;28;20088;-78
2023/04/22 02:00:46;;;;;;;9.85;6.38;;;;;;;;;;5014061;28;20405;-78
2023/04/22 02:03:12;;;;;;;11.38;6.78;;;;;;;;;;5013953;28;20028;-78
2023/04/22 02:05:39;;;;;;;11.20;7.00;;;;;;;;;;5030696;28;20067;-78
2023/04/22 02:08:11;;;;;;;10.57;7.47;;;;;;;;;;5033626;28;20030;-78
2023/04/22 02:10:37;;;;;;;9.25;7.05;;;;;;;;;;5033618;28;20068;-78
2023/04/22 02:13:03;;;;;;;14.48;8.45;;;;;;;;;;5012413;28;20026;-78
2023/04/22 02:15:29;;;;;;;13.70;8.05;;;;;;;;;;5013525;28;20354;-78
2023/04/22 02:17:55;;;;;;;11.60;7.30;;;;;;;;;;5024371;28;20029;-78
2023/04/22 02:20:21;;;;;;;15.32;8.05;;;;;;;;;;5012205;28;20046;-78
2023/04/22 02:22:49;;;;;;;10.73;7.53;;;;;;;;;;5013998;28;20026;-77
2023/04/22 02:25:15;;;;;;;12.38;8.32;;;;;;;;;;5013919;28;20033;-78
2023/04/22 02:27:41;;;;;;;15.23;8.38;;;;;;;;;;5013843;28;20034;-78
2023/04/22 02:30:08;;;;;;;11.30;6.90;;;;;;;;;;5013648;28;20048;-78
2023/04/22 02:32:38;;;;;;;11.05;7.53;;;;;;;;;;5013358;28;20022;-78
2023/04/22 02:35:04;;;;;;;;;;;;;;;;;;5013064;28;20040;-78
2023/04/22 02:37:30;;;;;;;11.65;7.68;;;;;;;;;;5007923;28;19914;-78
2023/04/22 02:39:56;;;;;;;11.02;7.47;;;;;;;;;;5002190;28;20092;-78
2023/04/22 02:42:22;;;;;;;11.77;8.50;;;;;;;;;;5013969;28;20097;-78
2023/04/22 02:44:51;;;;;;;11.20;7.00;;;;;;;;;;5012301;28;20149;-78
2023/04/22 02:47:17;;;;;;;12.38;8.10;;;;;;;;;;5013739;28;20070;-78
2023/04/22 02:49:43;;;;;;;12.90;8.02;;;;;;;;;;5012706;28;20053;-78
2023/04/22 02:52:10;;;;;;;13.93;8.05;;;;;;;;;;4996488;28;20027;-78
2023/04/22 02:54:35;;;;;;;12.75;8.20;;;;;;;;;;5013030;28;20408;-78
2023/04/22 02:57:02;;;;;;;14.88;8.05;;;;;;;;;;5016287;28;20030;-78
2023/04/22 02:59:28;;;;;;;13.65;8.30;;;;;;;;;;5017887;28;20053;-78
2023/04/22 03:01:54;;;;;;;12.13;7.72;;;;;;;;;;5016225;28;20030;-78
2023/04/22 03:04:20;;;;;;;9.93;7.35;;;;;;;;;;5017469;28;20030;-78
2023/04/22 03:06:46;;;;;;;14.05;9.38;;;;;;;;;;5017721;28;20030;-78
2023/04/22 03:09:12;;;;;;;14.05;8.27;;;;;;;;;;5017446;28;20026;-78
2023/04/22 03:11:38;;;;;;;14.85;8.80;;;;;;;;;;5017584;28;20025;-78
2023/04/22 03:14:04;;;;;;;14.80;9.30;;;;;;;;;;5017536;28;20029;-78
2023/04/22 03:16:30;;;;;;;14.77;8.32;;;;;;;;;;5012548;28;20045;-78
2023/04/22 03:18:56;;;;;;;13.63;8.90;;;;;;;;;;4996691;28;20392;-79
2023/04/22 03:21:22;;;;;;;12.85;8.40;;;;;;;;;;5017295;28;20033;-78
2023/04/22 03:23:48;;;;;;;13.20;9.07;;;;;;;;;;4999658;28;20065;-78
2023/04/22 03:26:14;;;;;;;12.30;8.27;;;;;;;;;;5016968;28;20058;-78
2023/04/22 03:28:40;;;;;;;12.02;8.18;;;;;;;;;;5021640;28;20356;-78
2023/04/22 03:31:06;;;;;;;12.90;8.10;;;;;;;;;;5036610;28;20021;-78
2023/04/22 03:33:32;;;;;;;13.85;8.35;;;;;;;;;;5036456;28;20330;-78
2023/04/22 03:35:58;;;;;;;13.82;8.30;;;;;;;;;;5018412;28;20518;-78
2023/04/22 03:38:24;;;;;;;12.60;8.38;;;;;;;;;;5036290;28;20041;-78
2023/04/22 03:40:50;;;;;;;12.02;8.40;;;;;;;;;;5036227;28;20071;-78
2023/04/22 03:43:16;;;;;;;12.63;8.23;;;;;;;;;;5030787;28;20025;-78
2023/04/22 03:45:47;;;;;;;15.90;9.02;;;;;;;;;;5016652;28;20022;-78
2023/04/22 03:48:13;;;;;;;12.85;8.27;;;;;;;;;;5016561;28;20033;-78
2023/04/22 03:50:39;;;;;;;14.77;8.63;;;;;;;;;;5030545;28;20033;-78
2023/04/22 03:53:05;;;;;;;19.45;8.82;;;;;;;;;;5035961;28;20108;-78
2023/04/22 03:55:31;;;;;;;19.25;8.20;;;;;;;;;;5036241;28;20027;-78
2023/04/22 03:57:57;;;;;;;27.65;8.05;;;;;;;;;;5035983;28;20125;-78
2023/04/22 04:00:23;;;;;;;43.00;10.10;;;;;;;;;;5018052;28;20064;-78
2023/04/22 04:02:49;;;;;;;48.08;8.95;;;;;;;;;;5035997;28;20025;-78
2023/04/22 04:05:15;;;;;;;37.88;7.97;;;;;;;;;;5035563;28;20053;-78
2023/04/22 04:07:41;;;;;;;39.45;9.40;;;;;;;;;;5035286;28;20025;-78
2023/04/22 04:10:08;;;;;;;15.55;8.00;;;;;;;;;;5035465;28;20056;-78
2023/04/22 04:12:33;;;;;;;13.05;7.97;;;;;;;;;;5017836;28;20591;-78
2023/04/22 04:14:59;;;;;;;12.82;8.10;;;;;;;;;;5035301;28;20073;-78
2023/04/22 04:17:27;;;;;;;22.70;8.85;;;;;;;;;;5034496;28;20039;-78
2023/04/22 04:19:54;;;;;;;105.60;13.10;;;;;;;;;;5014748;28;20058;-78
2023/04/22 04:22:20;;;;;;;75.72;9.85;;;;;;;;;;5016132;28;20029;-78
2023/04/22 04:24:57;;;;;;;30.15;8.38;;;;;;;;;;5016025;28;20373;-78
2023/04/22 04:27:23;;;;;;;16.67;8.95;;;;;;;;;;5015639;28;20034;-78
2023/04/22 04:29:51;;;;;;;25.90;8.77;;;;;;;;;;5031070;28;20041;-78
2023/04/22 04:32:17;;;;;;;29.98;9.30;;;;;;;;;;5035409;28;20108;-78
2023/04/22 04:34:43;;;;;;;68.13;11.13;;;;;;;;;;5035201;28;20105;-78
2023/04/22 04:37:10;;;;;;;47.88;11.75;;;;;;;;;;5020653;28;20049;-78
2023/04/22 04:39:36;;;;;;;30.85;9.13;;;;;;;;;;5015903;28;20132;-78
2023/04/22 04:42:02;;;;;;;39.50;9.93;;;;;;;;;;5015808;28;20029;-78
2023/04/22 04:44:30;;;;;;;27.90;8.93;;;;;;;;;;5020173;28;20115;-78
2023/04/22 04:46:57;;;;;;;56.45;10.20;;;;;;;;;;5035733;28;20036;-78
2023/04/22 04:49:23;;;;;;;24.75;8.73;;;;;;;;;;5035379;28;20018;-78
2023/04/22 04:51:49;;;;;;;31.08;8.55;;;;;;;;;;5034933;28;20043;-78
2023/04/22 04:54:15;;;;;;;22.60;8.35;;;;;;;;;;5034745;28;20034;-77
2023/04/22 04:56:41;;;;;;;20.02;7.38;;;;;;;;;;5017814;28;20043;-78
2023/04/22 04:59:07;;;;;;;12.50;7.10;;;;;;;;;;5034885;28;20021;-78
2023/04/22 05:01:34;;;;;;;14.40;7.55;;;;;;;;;;5017160;28;20029;-78
2023/04/22 05:04:00;;;;;;;16.65;7.65;;;;;;;;;;5016888;28;20025;-78
2023/04/22 05:06:27;;;;;;;17.92;7.60;;;;;;;;;;5034853;28;20112;-78
2023/04/22 05:08:53;;;;;;;14.60;8.13;;;;;;;;;;5023970;28;20507;-78
2023/04/22 05:11:19;;;;;;;95.70;10.10;;;;;;;;;;5014884;28;20385;-78
2023/04/22 05:13:45;;;;;;;23.65;7.47;;;;;;;;;;5013505;28;20484;-78
2023/04/22 05:16:11;;;;;;;59.38;9.07;;;;;;;;;;5014564;28;20034;-78
2023/04/22 05:18:39;;;;;;;25.92;8.50;;;;;;;;;;5014225;28;20014;-78
2023/04/22 05:21:05;;;;;;;56.90;9.15;;;;;;;;;;5033501;28;20099;-78
2023/04/22 05:23:31;;;;;;;54.83;9.13;;;;;;;;;;5034079;28;20458;-78
2023/04/22 05:25:57;;;;;;;81.35;10.98;;;;;;;;;;5034099;28;20163;-78
2023/04/22 05:28:23;;;;;;;39.22;8.18;;;;;;;;;;5016619;28;20017;-78
2023/04/22 05:30:49;;;;;;;44.40;9.55;;;;;;;;;;5034074;28;20029;-78
2023/04/22 05:33:15;;;;;;;29.55;8.32;;;;;;;;;;5034309;28;20026;-78
2023/04/22 05:35:41;;;;;;;25.65;9.38;;;;;;;;;;5033962;28;20081;-78
2023/04/22 05:38:08;;;;;;;38.75;11.25;;;;;;;;;;5034227;28;20108;-78
2023/04/22 05:40:34;;;;;;;23.70;9.65;;;;;;;;;;5034821;28;20048;-78
2023/04/22 05:43:00;;;;;;;23.95;10.18;;;;;;;;;;5034384;28;20029;-78
2023/04/22 05:45:26;;;;;;;17.75;8.25;;;;;;;;;;5033982;28;20419;-78
2023/04/22 05:47:52;;;;;;;34.42;10.38;;;;;;;;;;5033688;28;20028;-78
2023/04/22 05:50:17;;;;;;;11.18;7.88;;;;;;;;;;5033741;28;20025;-78
2023/04/22 05:52:45;;;;;;;12.20;7.63;;;;;;;;;;5033841;28;20451;-78
2023/04/22 05:55:11;;;;;;;11.73;7.50;;;;;;;;;;5033947;28;20036;-78
2023/04/22 05:57:37;;;;;;;12.55;7.15;;;;;;;;;;5034142;28;20037;-78
2023/04/22 06:00:04;;;;;;;10.85;7.85;;;;;;;;;;5008247;28;20029;-78
2023/04/22 06:02:30;;;;;;;10.10;7.63;;;;;;;;;;5018733;28;20464;-79
2023/04/22 06:04:56;;;;;;;8.45;7.10;;;;;;;;;;5035835;28;20033;-79
2023/04/22 06:07:22;;;;;;;9.05;7.40;;;;;;;;;;5034540;28;20516;-79
2023/04/22 06:09:47;;;;;;;8.80;7.70;;;;;;;;;;5030976;28;20021;-79
2023/04/22 06:12:14;;;;;;;8.73;7.47;;;;;;;;;;5026832;28;20061;-79
2023/04/22 06:14:40;;;;;;;9.63;7.53;;;;;;;;;;5020996;28;20061;-79
2023/04/22 06:17:07;;;;;;;9.32;7.90;;;;;;;;;;5015944;28;20030;-79
2023/04/22 06:19:33;;;;;;;10.48;8.32;;;;;;;;;;5013991;28;20046;-79
2023/04/22 06:21:59;;;;;;;9.27;7.95;;;;;;;;;;5034989;28;20104;-79
2023/04/22 06:24:25;;;;;;;10.70;8.70;;;;;;;;;;5022917;28;20038;-77
2023/04/22 06:26:51;;;;;;;11.90;9.50;;;;;;;;;;5014587;28;20497;-79
2023/04/22 06:29:17;;;;;;;9.90;8.30;;;;;;;;;;5016897;28;20026;-79
2023/04/22 06:31:43;;;;;;;17.40;9.48;;;;;;;;;;5025971;28;20660;-79
2023/04/22 06:34:09;;;;;;;12.45;9.32;;;;;;;;;;5041465;28;20087;-79
2023/04/22 06:36:37;;;;;;;13.38;10.00;;;;;;;;;;5040978;28;20463;-79
2023/04/22 06:39:04;;;;;;;16.58;10.38;;;;;;;;;;5040733;28;20021;-79
2023/04/22 06:41:31;;;;;;;17.15;12.02;;;;;;;;;;5039869;28;20644;-79
2023/04/22 06:43:57;;;;;;;16.92;11.23;;;;;;;;;;5028689;28;20037;-79
2023/04/22 06:46:23;;;;;;;14.10;10.80;;;;;;;;;;5040244;28;20403;-80
2023/04/22 06:48:49;;;;;;;14.18;10.95;;;;;;;;;;5020894;28;20037;-79
2023/04/22 06:51:15;;;;;;;13.43;10.05;;;;;;;;;;5039519;28;20036;-79
2023/04/22 06:53:49;;;;;;;13.02;9.85;;;;;;;;;;5023358;28;20041;-80
2023/04/22 06:56:15;;;;;;;12.05;9.88;;;;;;;;;;5002997;28;20026;-79
2023/04/22 06:58:41;;;;;;;11.60;9.48;;;;;;;;;;5019200;28;20032;-79
2023/04/22 07:01:07;;;;;;;12.73;9.95;;;;;;;;;;5004100;28;20034;-79
2023/04/22 07:03:33;;;;;;;11.38;9.27;;;;;;;;;;5018732;28;20097;-79
2023/04/22 07:05:59;;;;;;;11.75;9.48;;;;;;;;;;5030264;28;20391;-80
2023/04/22 07:08:25;;;;;;;10.75;9.35;;;;;;;;;;5038905;28;20060;-80
2023/04/22 07:10:51;;;;;;;11.73;9.63;;;;;;;;;;5038277;28;20029;-80
2023/04/22 07:13:17;;;;;;;11.52;9.52;;;;;;;;;;5039626;28;20082;-80
2023/04/22 07:15:45;;;;;;;10.93;8.85;;;;;;;;;;5041990;28;20029;-80
2023/04/22 07:18:11;;;;;;;11.43;10.00;;;;;;;;;;5028162;28;20032;-79
2023/04/22 07:20:37;;;;;;;11.52;8.95;;;;;;;;;;5033180;28;20171;-80
2023/04/22 07:23:03;;;;;;;10.82;9.10;;;;;;;;;;5038235;28;20057;-80
2023/04/22 07:25:29;;;;;;;11.63;9.50;;;;;;;;;;5038443;28;20700;-80
2023/04/22 07:27:55;;;;;;;11.90;9.27;;;;;;;;;;5021080;28;20022;-79
2023/04/22 07:30:21;;;;;;;11.27;8.85;;;;;;;;;;5037879;28;20044;-80
2023/04/22 07:32:47;;;;;;;11.40;9.15;;;;;;;;;;5038392;28;20468;-80
2023/04/22 07:35:30;;;;;;;12.38;9.48;;;;;;;;;;5037947;28;20036;-79
2023/04/22 07:37:56;;;;;;;11.82;9.55;;;;;;;;;;5038435;28;20043;-80
2023/04/22 07:40:22;;;;;;;12.07;9.57;;;;;;;;;;5038884;28;20106;-80
2023/04/22 07:42:48;;;;;;;11.55;10.20;;;;;;;;;;5037123;28;20068;-80
2023/04/22 07:45:14;;;;;;;11.93;9.95;;;;;;;;;;5020637;28;20033;-80
2023/04/22 07:47:40;;;;;;;13.15;10.02;;;;;;;;;;5038922;28;20040;-80
2023/04/22 07:50:06;;;;;;;11.35;9.40;;;;;;;;;;5038874;28;20029;-79
2023/04/22 07:52:32;;;;;;;10.95;9.13;;;;;;;;;;5031561;28;20037;-80
2023/04/22 07:54:58;;;;;;;12.07;9.55;;;;;;;;;;5037949;28;20076;-80
2023/04/22 07:57:24;;;;;;;11.20;9.90;;;;;;;;;;5039189;28;20021;-80
2023/04/22 07:59:51;;;;;;;11.27;9.55;;;;;;;;;;5032484;28;20052;-80
2023/04/22 08:02:17;;;;;;;14.30;10.25;;;;;;;;;;5020013;28;20064;-80
2023/04/22 08:04:43;;;;;;;9.32;8.32;;;;;;;;;;5031908;28;20577;-80
2023/04/22 08:07:09;;;;;;;10.40;9.05;;;;;;;;;;5034565;28;20030;-80
2023/04/22 08:09:35;;;;;;;10.00;8.80;;;;;;;;;;5019056;28;20033;-80
2023/04/22 08:12:01;;;;;;;11.18;9.70;;;;;;;;;;5021759;28;20030;-81
2023/04/22 08:14:27;;;;;;;11.93;9.48;;;;;;;;;;5018251;28;20034;-81
2023/04/22 08:17:02;;;;;;;13.70;10.15;;;;;;;;;;5018911;28;20201;-80
2023/04/22 08:19:28;;;;;;;13.13;10.18;;;;;;;;;;5018835;28;20527;-80
2023/04/22 08:21:55;;;;;;;16.38;11.60;;;;;;;;;;5018004;28;20053;-80
2023/04/22 08:24:21;;;;;;;13.90;10.85;;;;;;;;;;5019971;28;20073;-81
2023/04/22 08:26:47;;;;;;;14.88;11.57;;;;;;;;;;5033166;28;20493;-80
2023/04/22 08:29:13;;;;;;;16.95;11.52;;;;;;;;;;5019620;28;20104;-81
2023/04/22 08:31:39;;;;;;;16.88;12.07;;;;;;;;;;5041007;28;20030;-81
2023/04/22 08:34:05;;;;;;;14.93;11.60;;;;;;;;;;5038150;28;20495;-81
2023/04/22 08:36:31;;;;;;;16.13;12.02;;;;;;;;;;5034271;28;20025;-81
2023/04/22 08:38:57;;;;;;;16.88;11.63;;;;;;;;;;5032602;28;20038;-81
2023/04/22 08:41:23;;;;;;;15.48;12.43;;;;;;;;;;5044106;28;20080;-81
2023/04/22 08:44:01;;;;;;;17.17;12.77;;;;;;;;;;5040151;28;20376;-80
2023/04/22 08:46:28;;;;;;;16.58;12.05;;;;;;;;;;5041831;28;20112;-81
2023/04/22 08:48:54;;;;;;;15.95;12.35;;;;;;;;;;5040863;28;20026;-81
2023/04/22 08:51:20;;;;;;;16.38;12.52;;;;;;;;;;5038649;28;20026;-81
2023/04/22 08:53:46;;;;;;;16.85;12.10;;;;;;;;;;5038941;28;20100;-81
2023/04/22 08:56:13;;;;;;;15.82;11.63;;;;;;;;;;5044525;28;20026;-81
2023/04/22 08:58:42;;;;;;;17.75;12.23;;;;;;;;;;5041448;28;20021;-81
2023/04/22 09:01:09;;;;;;;17.27;12.65;;;;;;;;;;5024212;28;20483;-81
2023/04/22 09:03:36;;;;;;;15.27;12.63;;;;;;;;;;5040500;28;20029;-82
2023/04/22 09:06:12;;;;;;;16.45;11.93;;;;;;;;;;5038337;28;20506;-82
2023/04/22 09:08:38;;;;;;;16.42;11.70;;;;;;;;;;5021248;28;20033;-82
2023/04/22 09:11:04;;;;;;;14.75;11.02;;;;;;;;;;5039199;28;20068;-82
2023/04/22 09:13:30;;;;;;;14.50;10.48;;;;;;;;;;5038793;28;20427;-81
2023/04/22 09:15:56;;;;;;;14.32;11.50;;;;;;;;;;5032388;28;20511;-82
2023/04/22 09:18:22;;;;;;;15.30;11.07;;;;;;;;;;5036231;28;20084;-82
2023/04/22 09:20:49;;;;;;;14.30;11.13;;;;;;;;;;5037402;28;20445;-82
2023/04/22 09:23:15;;;;;;;13.63;11.48;;;;;;;;;;5037297;28;20056;-82
2023/04/22 09:25:41;;;;;;;14.05;11.00;;;;;;;;;;5037198;28;20026;-82
2023/04/22 09:28:11;;;;;;;13.68;11.30;;;;;;;;;;5022146;28;20060;-82
2023/04/22 09:30:37;;;;;;;;;;;;;;;;;;5037386;28;20060;-83
2023/04/22 09:33:05;;;;;;;14.20;12.07;;;;;;;;;;5038504;28;19909;-83
2023/04/22 09:35:36;;;;;;;13.55;11.63;;;;;;;;;;5030685;28;20104;-83
2023/04/22 09:38:03;;;;;;;11.68;10.48;;;;;;;;;;5026543;28;20476;-82
2023/04/22 09:40:30;;;;;;;11.20;8.95;;;;;;;;;;5036960;28;20025;-82
2023/04/22 09:43:00;;;;;;;9.60;8.60;;;;;;;;;;5036154;28;20074;-82
2023/04/22 09:45:26;;;;;;;;;;;;;;;;;;5030433;28;20017;-82
2023/04/22 09:47:53;;;;;;;10.30;9.20;;;;;;;;;;5020043;28;19913;-82
2023/04/22 09:50:20;;;;;;;10.85;9.30;;;;;;;;;;5031150;28;20034;-82
2023/04/22 09:52:53;;;;;;;13.20;9.57;;;;;;;;;;5039531;28;20031;-82
2023/04/22 09:55:21;;;;;;;11.45;9.90;;;;;;;;;;5022455;28;20108;-81
2023/04/22 09:57:47;;;;;;;11.85;10.48;;;;;;;;;;5031310;28;20041;-82
2023/04/22 10:00:13;;;;;;;11.90;10.60;;;;;;;;;;5020066;28;20022;-82
2023/04/22 10:02:39;;;;;;;11.88;10.65;;;;;;;;;;5026496;28;20050;-81
2023/04/22 10:05:06;;;;;;;12.05;10.50;;;;;;;;;;5019003;28;20029;-81
2023/04/22 10:07:32;;;;;;;13.85;10.90;;;;;;;;;;5035386;28;20025;-81
2023/04/22 10:09:58;;;;;;;11.48;9.88;;;;;;;;;;5021844;28;20045;-82
2023/04/22 10:12:24;;;;;;;12.52;11.23;;;;;;;;;;5016409;28;20037;-82
2023/04/22 10:14:50;;;;;;;12.57;11.27;;;;;;;;;;5033750;28;20026;-82
2023/04/22 10:17:19;;;;;;;11.70;10.52;;;;;;;;;;5036355;28;20123;-82
2023/04/22 10:19:50;;;;;;;12.63;11.32;;;;;;;;;;5007223;28;20491;-82
2023/04/22 10:22:16;;;;;;;13.07;11.77;;;;;;;;;;5031785;28;20026;-82
2023/04/22 10:24:43;;;;;;;13.93;11.85;;;;;;;;;;5033933;28;20025;-82
2023/04/22 10:27:10;;;;;;;14.52;11.95;;;;;;;;;;5029640;28;20028;-82
2023/04/22 10:29:41;;;;;;;14.07;11.75;;;;;;;;;;5024105;28;20024;-82
2023/04/22 10:32:10;;;;;;;14.25;12.30;;;;;;;;;;5032923;28;20556;-82
2023/04/22 10:34:37;;;;;;;14.98;12.50;;;;;;;;;;5031506;28;20104;-81
2023/04/22 10:37:08;;;;;;;14.02;11.77;;;;;;;;;;5042685;28;20022;-81
2023/04/22 10:39:34;;;;;;;13.60;12.20;;;;;;;;;;5041910;28;20029;-81
2023/04/22 10:42:06;;;;;;;13.75;12.40;;;;;;;;;;5038739;28;20077;-82
2023/04/22 10:44:54;;;;;;;13.77;11.05;;;;;;;;;;5023029;28;20128;-81
2023/04/22 10:47:26;;;;;;;13.25;11.90;;;;;;;;;;5023422;28;20029;-81
2023/04/22 10:50:08;;;;;;;12.68;11.35;;;;;;;;;;5022843;28;20025;-81
2023/04/22 10:52:34;;;;;;;13.80;12.00;;;;;;;;;;5022796;28;20037;-81
2023/04/22 10:55:00;;;;;;;15.23;12.20;;;;;;;;;;5030637;28;20044;-81
2023/04/22 10:57:36;;;;;;;13.52;12.13;;;;;;;;;;5029185;28;20026;-81
2023/04/22 11:00:15;;;;;;;13.70;12.30;;;;;;;;;;5025016;28;20026;-81
2023/04/22 11:02:43;;;;;;;14.57;13.05;;;;;;;;;;5030286;28;20040;-80
2023/04/22 11:05:39;;;;;;;14.82;13.32;;;;;;;;;;5033434;28;20032;-81
2023/04/22 11:08:12;;;;;;;13.93;12.43;;;;;;;;;;5012224;28;20059;-81
2023/04/22 11:10:41;;;;;;;15.68;13.13;;;;;;;;;;5022202;28;20034;-81
2023/04/22 11:13:08;;;;;;;11.93;10.70;;;;;;;;;;5034821;28;20097;-81
2023/04/22 11:15:35;;;;;;;11.75;10.55;;;;;;;;;;5031478;28;20026;-81
2023/04/22 11:18:01;;;;;;;11.25;10.10;;;;;;;;;;5024472;28;20483;-82
2023/04/22 11:20:28;;;;;;;11.70;10.25;;;;;;;;;;5034604;28;20053;-81
2023/04/22 11:22:55;;;;;;;13.02;11.70;;;;;;;;;;5026464;28;20028;-81
2023/04/22 11:25:22;;;;;;;14.00;11.48;;;;;;;;;;5033448;28;20231;-81
2023/04/22 11:27:48;;;;;;;14.25;12.75;;;;;;;;;;5032792;28;20522;-81
2023/04/22 11:30:18;;;;;;;15.88;13.13;;;;;;;;;;5034865;28;20025;-81
2023/04/22 11:32:45;;;;;;;13.57;11.88;;;;;;;;;;5034010;28;20104;-82
2023/04/22 11:35:12;;;;;;;15.38;12.50;;;;;;;;;;5033472;28;20040;-82
2023/04/22 11:37:41;;;;;;;14.27;12.77;;;;;;;;;;5035891;28;20036;-82
2023/04/22 11:40:12;;;;;;;14.13;12.65;;;;;;;;;;5018226;28;20045;-83
2023/04/22 11:42:38;;;;;;;16.33;12.45;;;;;;;;;;5017188;28;20044;-83
2023/04/22 11:45:05;;;;;;;12.70;11.25;;;;;;;;;;5035684;28;20052;-82
2023/04/22 11:47:32;;;;;;;13.70;10.95;;;;;;;;;;5035256;28;20072;-82
2023/04/22 11:49:59;;;;;;;10.93;9.65;;;;;;;;;;5009124;28;20025;-81
2023/04/22 11:52:25;;;;;;;10.75;9.18;;;;;;;;;;5036024;28;20083;-81
2023/04/22 11:54:51;;;;;;;11.68;9.73;;;;;;;;;;5034397;28;20030;-80
2023/04/22 11:57:20;;;;;;;10.40;9.30;;;;;;;;;;5016282;28;20101;-81
2023/04/22 11:59:56;;;;;;;10.90;9.80;;;;;;;;;;5016418;28;20018;-80
2023/04/22 12:02:23;;;;;;;12.13;11.00;;;;;;;;;;5016335;28;20256;-81
2023/04/22 12:04:49;;;;;;;11.57;10.05;;;;;;;;;;5016086;28;20068;-80
2023/04/22 12:07:15;;;;;;;12.30;10.13;;;;;;;;;;5016099;28;20049;-80
2023/04/22 12:09:41;;;;;;;11.38;9.90;;;;;;;;;;5016161;28;20057;-80
2023/04/22 12:12:07;;;;;;;15.63;11.13;;;;;;;;;;5016325;28;20391;-80
2023/04/22 12:14:34;;;;;;;11.75;10.52;;;;;;;;;;5014093;28;20075;-82
2023/04/22 12:17:10;;;;;;;12.52;10.10;;;;;;;;;;5034606;28;20471;-82
2023/04/22 12:19:37;;;;;;;12.15;10.95;;;;;;;;;;5043046;28;20464;-82
2023/04/22 12:22:03;;;;;;;11.52;10.32;;;;;;;;;;5037654;28;20045;-81
2023/04/22 12:24:29;;;;;;;12.55;11.25;;;;;;;;;;5039978;28;20125;-81
2023/04/22 12:26:55;;;;;;;13.13;11.73;;;;;;;;;;5040317;28;20033;-82
2023/04/22 12:29:31;;;;;;;13.10;11.75;;;;;;;;;;5025159;28;20036;-82
2023/04/22 12:31:57;;;;;;;13.95;11.60;;;;;;;;;;5017696;28;20026;-82
2023/04/22 12:34:23;;;;;;;13.90;11.45;;;;;;;;;;5031475;28;20036;-82
2023/04/22 12:36:49;;;;;;;14.90;10.48;;;;;;;;;;5036364;28;20053;-81
2023/04/22 12:39:15;;;;;;;16.50;13.20;;;;;;;;;;5038587;28;20025;-81
2023/04/22 12:41:41;;;;;;;14.30;10.40;;;;;;;;;;5036824;28;20036;-81
2023/04/22 12:44:07;;;;;;;13.27;10.50;;;;;;;;;;5037615;28;20041;-81
2023/04/22 12:46:34;;;;;;;14.60;11.93;;;;;;;;;;5041880;28;20074;-81
2023/04/22 12:49:01;;;;;;;15.43;11.05;;;;;;;;;;5037382;28;20036;-81
2023/04/22 12:51:27;;;;;;;14.00;11.43;;;;;;;;;;5036655;28;20104;-81
2023/04/22 12:53:57;;;;;;;14.50;11.70;;;;;;;;;;5036410;28;20057;-81
2023/04/22 12:56:23;;;;;;;14.57;12.45;;;;;;;;;;5036006;28;20451;-80
2023/04/22 12:58:49;;;;;;;14.85;11.57;;;;;;;;;;5040460;28;20467;-81
2023/04/22 13:01:15;;;;;;;13.10;9.40;;;;;;;;;;5042014;28;20633;-81
2023/04/22 13:03:41;;;;;;;17.85;11.60;;;;;;;;;;5035226;28;20091;-82
2023/04/22 13:06:35;;;;;;;14.38;11.27;;;;;;;;;;5036674;28;20037;-83
2023/04/22 13:09:01;;;;;;;11.18;8.45;;;;;;;;;;5036350;28;20017;-83
2023/04/22 13:11:27;;;;;;;13.30;10.25;;;;;;;;;;5035694;28;20353;-83
2023/04/22 13:13:53;;;;;;;12.52;8.85;;;;;;;;;;5036805;28;20104;-81
2023/04/22 13:16:20;;;;;;;9.85;8.38;;;;;;;;;;5036420;28;20029;-82
2023/04/22 13:18:46;;;;;;;10.80;8.02;;;;;;;;;;5028995;28;20017;-82
2023/04/22 13:21:13;;;;;;;9.70;7.78;;;;;;;;;;5038485;28;20052;-82
2023/04/22 13:23:39;;;;;;;10.20;6.75;;;;;;;;;;5020739;28;20026;-82
2023/04/22 13:26:05;;;;;;;9.32;7.57;;;;;;;;;;5037211;28;20115;-82
2023/04/22 13:28:31;;;;;;;10.48;7.15;;;;;;;;;;5033146;28;20821;-82
2023/04/22 13:30:57;;;;;;;10.55;7.43;;;;;;;;;;5033349;28;20053;-82
2023/04/22 13:33:23;;;;;;;8.60;6.70;;;;;;;;;;5035758;28;20075;-82
2023/04/22 13:35:50;;;;;;;7.18;5.97;;;;;;;;;;5026801;28;20025;-82
2023/04/22 13:38:16;;;;;;;9.05;5.90;;;;;;;;;;5027080;28;20033;-82
2023/04/22 13:40:42;;;;;;;9.48;7.32;;;;;;;;;;5015201;28;20052;-81
2023/04/22 13:43:09;;;;;;;13.00;7.57;;;;;;;;;;5026224;28;20472;-81
2023/04/22 13:45:35;;;;;;;12.45;9.10;;;;;;;;;;5030807;28;20487;-80
2023/04/22 13:48:01;;;;;;;13.90;10.07;;;;;;;;;;5028794;28;20033;-80
2023/04/22 13:50:27;;;;;;;16.30;11.02;;;;;;;;;;5035245;28;20195;-80
2023/04/22 13:52:53;;;;;;;15.32;11.13;;;;;;;;;;5031408;28;20017;-81
2023/04/22 13:55:19;;;;;;;16.05;11.73;;;;;;;;;;5029060;28;20179;-81
2023/04/22 13:57:45;;;;;;;16.25;11.65;;;;;;;;;;5025793;28;20064;-81
2023/04/22 14:00:12;;;;;;;16.52;12.02;;;;;;;;;;5031220;28;20033;-81
2023/04/22 14:02:38;;;;;;;16.27;10.35;;;;;;;;;;5028233;28;20029;-81
2023/04/22 14:05:06;;;;;;;16.50;10.43;;;;;;;;;;5024975;28;20100;-81
2023/04/22 14:07:32;;;;;;;16.65;11.88;;;;;;;;;;5023323;28;20026;-81
2023/04/22 14:09:58;;;;;;;14.60;9.20;;;;;;;;;;5031063;28;20108;-81
2023/04/22 14:12:24;;;;;;;17.23;12.95;;;;;;;;;;5010429;28;20057;-81
2023/04/22 14:14:50;;;;;;;13.38;8.77;;;;;;;;;;5026501;28;20029;-81
2023/04/22 14:17:16;;;;;;;16.08;9.05;;;;;;;;;;5023354;28;20114;-81
2023/04/22 14:19:43;;;;;;;11.27;6.32;;;;;;;;;;5023768;28;20034;-81
2023/04/22 14:22:12;;;;;;;13.27;8.13;;;;;;;;;;5024841;28;20042;-81
2023/04/22 14:24:38;;;;;;;16.48;11.00;;;;;;;;;;5024745;28;20037;-81
2023/04/22 14:27:04;;;;;;;15.82;10.25;;;;;;;;;;5021915;28;20056;-81